sensor_id;sensor_type;location;lat;lon;timestamp;temperature;humidity
20650;DHT22;10484;48.736;9.332;2022-07-09T00:00:06;17.40;1.00
20650;DHT22;10484;48.736;9.332;2022-07-09T00:02:32;17.40;1.00
20650;DHT22;10484;48.736;9.332;2022-07-09T00:05:00;17.40;1.00
20650;DHT22;10484;48.736;9.332;2022-07-09T00:07:25;17.30;1.00
20650;DHT22;10484;48.736;9.332;2022-07-09T00:09:52;17.30;1.00
20650;DHT22;10484;48.736;9.332;2022-07-09T00:12:17;17.20;1.00
20650;DHT22;10484;48.736;9.332;2022-07-09T00:14:43;17.20;1.00
20650;DHT22;10484;48.736;9.332;2022-07-09T00:17:09;17.10;1.00
20650;DHT22;10484;48.736;9.332;2022-07-09T00:19:35;17.10;1.00
20650;DHT22;10484;48.736;9.332;2022-07-09T00:22:00;17.10;1.00
20650;DHT22;10484;48.736;9.332;2022-07-09T00:24:26;17.00;1.00
20650;DHT22;10484;48.736;9.332;2022-07-09T00:26:52;17.00;1.00
20650;DHT22;10484;48.736;9.332;2022-07-09T00:29:18;16.90;1.00
20650;DHT22;10484;48.736;9.332;2022-07-09T00:31:43;16.90;1.00
20650;DHT22;10484;48.736;9.332;2022-07-09T00:34:11;16.90;1.00
20650;DHT22;10484;48.736;9.332;2022-07-09T00:36:37;16.80;1.00
20650;DHT22;10484;48.736;9.332;2022-07-09T00:39:03;16.80;1.00
20650;DHT22;10484;48.736;9.332;2022-07-09T00:41:29;16.70;1.00
20650;DHT22;10484;48.736;9.332;2022-07-09T00:43:54;16.70;1.00
20650;DHT22;10484;48.736;9.332;2022-07-09T00:46:20;16.70;1.00
20650;DHT22;10484;48.736;9.332;2022-07-09T00:48:46;16.60;1.00
20650;DHT22;10484;48.736;9.332;2022-07-09T00:51:12;16.60;1.00
20650;DHT22;10484;48.736;9.332;2022-07-09T00:53:39;16.50;1.00
20650;DHT22;10484;48.736;9.332;2022-07-09T00:56:05;16.50;1.00
20650;DHT22;10484;48.736;9.332;2022-07-09T00:58:31;16.50;1.00
20650;DHT22;10484;48.736;9.332;2022-07-09T01:00:58;16.40;1.00
20650;DHT22;10484;48.736;9.332;2022-07-09T01:03:24;16.40;1.00
20650;DHT22;10484;48.736;9.332;2022-07-09T01:05:50;16.40;1.00
20650;DHT22;10484;48.736;9.332;2022-07-09T01:08:16;16.30;1.00
20650;DHT22;10484;48.736;9.332;2022-07-09T01:10:42;16.30;1.00
20650;DHT22;10484;48.736;9.332;2022-07-09T01:13:08;16.30;1.00
20650;DHT22;10484;48.736;9.332;2022-07-09T01:15:33;16.20;1.00
20650;DHT22;10484;48.736;9.332;2022-07-09T01:17:59;16.20;1.00
20650;DHT22;10484;48.736;9.332;2022-07-09T01:20:26;16.20;1.00
20650;DHT22;10484;48.736;9.332;2022-07-09T01:22:52;16.10;1.00
20650;DHT22;10484;48.736;9.332;2022-07-09T01:25:19;16.10;1.00
20650;DHT22;10484;48.736;9.332;2022-07-09T01:27:45;16.10;1.00
20650;DHT22;10484;48.736;9.332;2022-07-09T01:30:14;16.00;1.00
20650;DHT22;10484;48.736;9.332;2022-07-09T01:32:48;16.00;1.00
20650;DHT22;10484;48.736;9.332;2022-07-09T01:35:14;16.00;1.00
20650;DHT22;10484;48.736;9.332;2022-07-09T01:37:39;16.00;1.00
20650;DHT22;10484;48.736;9.332;2022-07-09T01:40:05;15.90;1.00
20650;DHT22;10484;48.736;9.332;2022-07-09T01:42:31;15.90;1.00
20650;DHT22;10484;48.736;9.332;2022-07-09T01:44:57;15.80;1.00
20650;DHT22;10484;48.736;9.332;2022-07-09T01:47:23;15.80;1.00
20650;DHT22;10484;48.736;9.332;2022-07-09T01:49:48;15.80;1.00
20650;DHT22;10484;48.736;9.332;2022-07-09T01:52:14;15.70;1.00
20650;DHT22;10484;48.736;9.332;2022-07-09T01:54:40;15.70;1.00
20650;DHT22;10484;48.736;9.332;2022-07-09T01:57:05;15.70;1.00
20650;DHT22;10484;48.736;9.332;2022-07-09T01:59:31;15.70;1.00
20650;DHT22;10484;48.736;9.332;2022-07-09T02:01:57;15.60;1.00
20650;DHT22;10484;48.736;9.332;2022-07-09T02:04:22;15.60;1.00
20650;DHT22;10484;48.736;9.332;2022-07-09T02:06:48;15.60;1.00
20650;DHT22;10484;48.736;9.332;2022-07-09T02:09:14;15.60;1.00
20650;DHT22;10484;48.736;9.332;2022-07-09T02:11:40;15.50;1.00
20650;DHT22;10484;48.736;9.332;2022-07-09T02:14:05;15.50;1.00
20650;DHT22;10484;48.736;9.332;2022-07-09T02:16:31;15.40;1.00
20650;DHT22;10484;48.736;9.332;2022-07-09T02:18:57;15.40;1.00
20650;DHT22;10484;48.736;9.332;2022-07-09T02:21:22;15.30;1.00
20650;DHT22;10484;48.736;9.332;2022-07-09T02:23:48;15.30;1.00
20650;DHT22;10484;48.736;9.332;2022-07-09T02:26:14;15.20;1.00
20650;DHT22;10484;48.736;9.332;2022-07-09T02:28:40;15.20;1.00
20650;DHT22;10484;48.736;9.332;2022-07-09T02:31:07;15.20;1.00
20650;DHT22;10484;48.736;9.332;2022-07-09T02:33:33;15.20;1.00
20650;DHT22;10484;48.736;9.332;2022-07-09T02:35:58;15.10;1.00
20650;DHT22;10484;48.736;9.332;2022-07-09T02:38:24;15.10;1.00
20650;DHT22;10484;48.736;9.332;2022-07-09T02:40:50;15.10;1.00
20650;DHT22;10484;48.736;9.332;2022-07-09T02:43:15;15.10;1.00
20650;DHT22;10484;48.736;9.332;2022-07-09T02:45:41;15.00;1.00
20650;DHT22;10484;48.736;9.332;2022-07-09T02:48:07;15.00;1.00
20650;DHT22;10484;48.736;9.332;2022-07-09T02:50:32;15.00;1.00
20650;DHT22;10484;48.736;9.332;2022-07-09T02:52:58;14.90;1.00
20650;DHT22;10484;48.736;9.332;2022-07-09T02:55:24;14.90;1.00
20650;DHT22;10484;48.736;9.332;2022-07-09T02:57:49;14.90;1.00
20650;DHT22;10484;48.736;9.332;2022-07-09T03:00:15;14.80;1.00
20650;DHT22;10484;48.736;9.332;2022-07-09T03:02:41;14.80;1.00
20650;DHT22;10484;48.736;9.332;2022-07-09T03:05:07;14.80;1.00
20650;DHT22;10484;48.736;9.332;2022-07-09T03:07:32;14.80;1.00
20650;DHT22;10484;48.736;9.332;2022-07-09T03:09:59;14.70;1.00
20650;DHT22;10484;48.736;9.332;2022-07-09T03:12:24;14.70;1.00
20650;DHT22;10484;48.736;9.332;2022-07-09T03:14:50;14.70;1.00
20650;DHT22;10484;48.736;9.332;2022-07-09T03:17:15;14.70;1.00
20650;DHT22;10484;48.736;9.332;2022-07-09T03:19:41;14.70;1.00
20650;DHT22;10484;48.736;9.332;2022-07-09T03:22:07;14.60;1.00
20650;DHT22;10484;48.736;9.332;2022-07-09T03:24:32;14.60;1.00
20650;DHT22;10484;48.736;9.332;2022-07-09T03:26:58;14.60;1.00
20650;DHT22;10484;48.736;9.332;2022-07-09T03:29:23;14.60;1.00
20650;DHT22;10484;48.736;9.332;2022-07-09T03:31:49;14.50;1.00
20650;DHT22;10484;48.736;9.332;2022-07-09T03:34:15;14.50;1.00
20650;DHT22;10484;48.736;9.332;2022-07-09T03:36:40;14.50;1.00
20650;DHT22;10484;48.736;9.332;2022-07-09T03:39:06;14.50;1.00
20650;DHT22;10484;48.736;9.332;2022-07-09T03:41:32;14.50;1.00
20650;DHT22;10484;48.736;9.332;2022-07-09T03:43:58;14.40;1.00
20650;DHT22;10484;48.736;9.332;2022-07-09T03:46:23;14.40;1.00
20650;DHT22;10484;48.736;9.332;2022-07-09T03:48:50;14.30;1.00
20650;DHT22;10484;48.736;9.332;2022-07-09T03:51:15;14.30;1.00
20650;DHT22;10484;48.736;9.332;2022-07-09T03:53:41;14.30;1.00
20650;DHT22;10484;48.736;9.332;2022-07-09T03:56:07;14.30;1.00
20650;DHT22;10484;48.736;9.332;2022-07-09T03:58:33;14.20;1.00
20650;DHT22;10484;48.736;9.332;2022-07-09T04:00:59;14.20;1.00
20650;DHT22;10484;48.736;9.332;2022-07-09T04:03:24;14.20;1.00
20650;DHT22;10484;48.736;9.332;2022-07-09T04:05:50;14.20;1.00
20650;DHT22;10484;48.736;9.332;2022-07-09T04:08:15;14.20;1.00
20650;DHT22;10484;48.736;9.332;2022-07-09T04:10:41;14.20;1.00
20650;DHT22;10484;48.736;9.332;2022-07-09T04:13:07;14.20;1.00
20650;DHT22;10484;48.736;9.332;2022-07-09T04:15:33;14.20;1.00
20650;DHT22;10484;48.736;9.332;2022-07-09T04:17:58;14.10;1.00
20650;DHT22;10484;48.736;9.332;2022-07-09T04:20:24;14.10;1.00
20650;DHT22;10484;48.736;9.332;2022-07-09T04:22:51;14.10;1.00
20650;DHT22;10484;48.736;9.332;2022-07-09T04:25:17;14.10;1.00
20650;DHT22;10484;48.736;9.332;2022-07-09T04:27:43;14.10;1.00
20650;DHT22;10484;48.736;9.332;2022-07-09T04:30:09;14.10;1.00
20650;DHT22;10484;48.736;9.332;2022-07-09T04:32:36;14.10;1.00
20650;DHT22;10484;48.736;9.332;2022-07-09T04:35:01;14.10;1.00
20650;DHT22;10484;48.736;9.332;2022-07-09T04:37:27;14.00;1.00
20650;DHT22;10484;48.736;9.332;2022-07-09T04:39:53;14.00;1.00
20650;DHT22;10484;48.736;9.332;2022-07-09T04:42:18;14.00;1.00
20650;DHT22;10484;48.736;9.332;2022-07-09T04:44:45;14.10;1.00
20650;DHT22;10484;48.736;9.332;2022-07-09T04:47:12;14.00;1.00
20650;DHT22;10484;48.736;9.332;2022-07-09T04:49:37;14.00;1.00
20650;DHT22;10484;48.736;9.332;2022-07-09T04:52:04;14.00;1.00
20650;DHT22;10484;48.736;9.332;2022-07-09T04:54:30;14.00;1.00
20650;DHT22;10484;48.736;9.332;2022-07-09T04:56:56;14.10;1.00
20650;DHT22;10484;48.736;9.332;2022-07-09T04:59:21;14.10;1.00
20650;DHT22;10484;48.736;9.332;2022-07-09T05:01:47;14.10;1.00
20650;DHT22;10484;48.736;9.332;2022-07-09T05:04:13;14.10;1.00
20650;DHT22;10484;48.736;9.332;2022-07-09T05:06:39;14.10;1.00
20650;DHT22;10484;48.736;9.332;2022-07-09T05:09:05;14.10;1.00
20650;DHT22;10484;48.736;9.332;2022-07-09T05:11:31;14.10;1.00
20650;DHT22;10484;48.736;9.332;2022-07-09T05:13:58;14.10;1.00
20650;DHT22;10484;48.736;9.332;2022-07-09T05:16:23;14.20;1.00
20650;DHT22;10484;48.736;9.332;2022-07-09T05:18:49;14.20;1.00
20650;DHT22;10484;48.736;9.332;2022-07-09T05:21:14;14.20;1.00
20650;DHT22;10484;48.736;9.332;2022-07-09T05:23:40;14.20;1.00
20650;DHT22;10484;48.736;9.332;2022-07-09T05:26:06;14.30;1.00
20650;DHT22;10484;48.736;9.332;2022-07-09T05:28:32;14.30;1.00
20650;DHT22;10484;48.736;9.332;2022-07-09T05:30:57;14.30;1.00
20650;DHT22;10484;48.736;9.332;2022-07-09T05:33:23;14.30;1.00
20650;DHT22;10484;48.736;9.332;2022-07-09T05:35:49;14.30;1.00
20650;DHT22;10484;48.736;9.332;2022-07-09T05:38:15;14.30;1.00
20650;DHT22;10484;48.736;9.332;2022-07-09T05:40:40;14.40;1.00
20650;DHT22;10484;48.736;9.332;2022-07-09T05:43:06;14.40;1.00
20650;DHT22;10484;48.736;9.332;2022-07-09T05:45:32;14.40;1.00
20650;DHT22;10484;48.736;9.332;2022-07-09T05:47:57;14.40;1.00
20650;DHT22;10484;48.736;9.332;2022-07-09T05:50:23;14.40;1.00
20650;DHT22;10484;48.736;9.332;2022-07-09T05:52:48;14.50;1.00
20650;DHT22;10484;48.736;9.332;2022-07-09T05:55:14;14.50;1.00
20650;DHT22;10484;48.736;9.332;2022-07-09T05:57:40;14.50;1.00
20650;DHT22;10484;48.736;9.332;2022-07-09T06:00:06;14.60;1.00
20650;DHT22;10484;48.736;9.332;2022-07-09T06:02:33;14.50;1.00
20650;DHT22;10484;48.736;9.332;2022-07-09T06:04:58;14.50;1.00
20650;DHT22;10484;48.736;9.332;2022-07-09T06:07:24;14.50;1.00
20650;DHT22;10484;48.736;9.332;2022-07-09T06:09:50;14.60;1.00
20650;DHT22;10484;48.736;9.332;2022-07-09T06:12:15;14.60;1.00
20650;DHT22;10484;48.736;9.332;2022-07-09T06:14:41;14.60;1.00
20650;DHT22;10484;48.736;9.332;2022-07-09T06:17:07;14.60;1.00
20650;DHT22;10484;48.736;9.332;2022-07-09T06:19:34;14.60;1.00
20650;DHT22;10484;48.736;9.332;2022-07-09T06:22:00;14.70;1.00
20650;DHT22;10484;48.736;9.332;2022-07-09T06:24:26;14.70;1.00
20650;DHT22;10484;48.736;9.332;2022-07-09T06:26:51;14.70;1.00
20650;DHT22;10484;48.736;9.332;2022-07-09T06:29:17;14.70;1.00
20650;DHT22;10484;48.736;9.332;2022-07-09T06:31:43;14.70;1.00
20650;DHT22;10484;48.736;9.332;2022-07-09T06:34:08;14.80;1.00
20650;DHT22;10484;48.736;9.332;2022-07-09T06:36:35;14.80;1.00
20650;DHT22;10484;48.736;9.332;2022-07-09T06:39:01;14.90;1.00
20650;DHT22;10484;48.736;9.332;2022-07-09T06:41:45;14.80;1.00
20650;DHT22;10484;48.736;9.332;2022-07-09T06:44:11;14.90;1.00
20650;DHT22;10484;48.736;9.332;2022-07-09T06:46:37;14.90;1.00
20650;DHT22;10484;48.736;9.332;2022-07-09T06:49:04;14.90;1.00
20650;DHT22;10484;48.736;9.332;2022-07-09T06:51:30;15.00;1.00
20650;DHT22;10484;48.736;9.332;2022-07-09T06:53:55;15.00;1.00
20650;DHT22;10484;48.736;9.332;2022-07-09T06:56:22;15.00;1.00
20650;DHT22;10484;48.736;9.332;2022-07-09T06:58:47;15.10;1.00
20650;DHT22;10484;48.736;9.332;2022-07-09T07:01:13;15.10;1.00
20650;DHT22;10484;48.736;9.332;2022-07-09T07:03:39;15.20;1.00
20650;DHT22;10484;48.736;9.332;2022-07-09T07:06:04;15.20;1.00
20650;DHT22;10484;48.736;9.332;2022-07-09T07:08:30;15.20;1.00
20650;DHT22;10484;48.736;9.332;2022-07-09T07:10:56;15.30;1.00
20650;DHT22;10484;48.736;9.332;2022-07-09T07:13:21;15.30;1.00
20650;DHT22;10484;48.736;9.332;2022-07-09T07:15:47;15.30;1.00
20650;DHT22;10484;48.736;9.332;2022-07-09T07:18:15;15.40;1.00
20650;DHT22;10484;48.736;9.332;2022-07-09T07:20:42;15.40;1.00
20650;DHT22;10484;48.736;9.332;2022-07-09T07:23:08;15.50;1.00
20650;DHT22;10484;48.736;9.332;2022-07-09T07:25:34;15.50;1.00
20650;DHT22;10484;48.736;9.332;2022-07-09T07:27:59;15.60;1.00
20650;DHT22;10484;48.736;9.332;2022-07-09T07:30:27;15.60;1.00
20650;DHT22;10484;48.736;9.332;2022-07-09T07:32:52;15.70;1.00
20650;DHT22;10484;48.736;9.332;2022-07-09T07:35:18;15.70;1.00
20650;DHT22;10484;48.736;9.332;2022-07-09T07:37:44;15.80;1.00
20650;DHT22;10484;48.736;9.332;2022-07-09T07:40:10;15.90;1.00
20650;DHT22;10484;48.736;9.332;2022-07-09T07:42:36;15.90;1.00
20650;DHT22;10484;48.736;9.332;2022-07-09T07:45:01;16.00;1.00
20650;DHT22;10484;48.736;9.332;2022-07-09T07:47:27;16.10;1.00
20650;DHT22;10484;48.736;9.332;2022-07-09T07:49:52;16.20;1.00
20650;DHT22;10484;48.736;9.332;2022-07-09T07:52:19;16.20;1.00
20650;DHT22;10484;48.736;9.332;2022-07-09T07:54:45;16.30;1.00
20650;DHT22;10484;48.736;9.332;2022-07-09T07:57:11;16.40;1.00
20650;DHT22;10484;48.736;9.332;2022-07-09T07:59:37;16.50;1.00
20650;DHT22;10484;48.736;9.332;2022-07-09T08:02:03;16.60;1.00
20650;DHT22;10484;48.736;9.332;2022-07-09T08:04:28;16.70;1.00
20650;DHT22;10484;48.736;9.332;2022-07-09T08:06:54;16.70;1.00
20650;DHT22;10484;48.736;9.332;2022-07-09T08:09:19;16.80;1.00
20650;DHT22;10484;48.736;9.332;2022-07-09T08:11:46;17.00;1.00
20650;DHT22;10484;48.736;9.332;2022-07-09T08:14:11;17.10;1.00
20650;DHT22;10484;48.736;9.332;2022-07-09T08:16:37;17.20;1.00
20650;DHT22;10484;48.736;9.332;2022-07-09T08:19:03;17.30;1.00
20650;DHT22;10484;48.736;9.332;2022-07-09T08:21:28;17.40;1.00
20650;DHT22;10484;48.736;9.332;2022-07-09T08:23:54;17.50;1.00
20650;DHT22;10484;48.736;9.332;2022-07-09T08:26:22;17.70;1.00
20650;DHT22;10484;48.736;9.332;2022-07-09T08:28:48;17.80;1.00
20650;DHT22;10484;48.736;9.332;2022-07-09T08:31:17;17.90;1.00
20650;DHT22;10484;48.736;9.332;2022-07-09T08:33:44;18.00;1.00
20650;DHT22;10484;48.736;9.332;2022-07-09T08:36:10;18.10;1.00
20650;DHT22;10484;48.736;9.332;2022-07-09T08:38:36;18.20;1.00
20650;DHT22;10484;48.736;9.332;2022-07-09T08:41:04;18.40;1.00
20650;DHT22;10484;48.736;9.332;2022-07-09T08:43:38;18.50;1.00
20650;DHT22;10484;48.736;9.332;2022-07-09T08:46:04;18.70;1.00
20650;DHT22;10484;48.736;9.332;2022-07-09T08:48:34;18.80;1.00
20650;DHT22;10484;48.736;9.332;2022-07-09T08:51:01;19.00;1.00
20650;DHT22;10484;48.736;9.332;2022-07-09T08:53:27;19.10;1.00
20650;DHT22;10484;48.736;9.332;2022-07-09T08:55:54;19.20;1.00
20650;DHT22;10484;48.736;9.332;2022-07-09T08:58:20;19.40;1.00
20650;DHT22;10484;48.736;9.332;2022-07-09T09:00:48;19.60;1.00
20650;DHT22;10484;48.736;9.332;2022-07-09T09:03:14;19.80;1.00
20650;DHT22;10484;48.736;9.332;2022-07-09T09:05:39;19.90;1.00
20650;DHT22;10484;48.736;9.332;2022-07-09T09:08:25;20.00;1.00
20650;DHT22;10484;48.736;9.332;2022-07-09T09:10:52;20.20;1.00
20650;DHT22;10484;48.736;9.332;2022-07-09T09:13:17;20.30;1.00
20650;DHT22;10484;48.736;9.332;2022-07-09T09:15:43;20.50;1.00
20650;DHT22;10484;48.736;9.332;2022-07-09T09:18:10;20.60;1.00
20650;DHT22;10484;48.736;9.332;2022-07-09T09:20:35;20.70;1.00
20650;DHT22;10484;48.736;9.332;2022-07-09T09:23:02;20.80;1.00
20650;DHT22;10484;48.736;9.332;2022-07-09T09:25:30;20.90;1.00
20650;DHT22;10484;48.736;9.332;2022-07-09T09:27:59;21.00;1.00
20650;DHT22;10484;48.736;9.332;2022-07-09T09:30:26;21.20;1.00
20650;DHT22;10484;48.736;9.332;2022-07-09T09:33:02;21.30;1.00
20650;DHT22;10484;48.736;9.332;2022-07-09T09:35:29;21.50;1.00
20650;DHT22;10484;48.736;9.332;2022-07-09T09:37:56;21.60;1.00
20650;DHT22;10484;48.736;9.332;2022-07-09T09:40:25;21.70;1.00
20650;DHT22;10484;48.736;9.332;2022-07-09T09:42:52;21.90;1.00
20650;DHT22;10484;48.736;9.332;2022-07-09T09:45:23;22.00;1.00
20650;DHT22;10484;48.736;9.332;2022-07-09T09:47:50;22.20;1.00
20650;DHT22;10484;48.736;9.332;2022-07-09T09:50:18;22.30;1.00
20650;DHT22;10484;48.736;9.332;2022-07-09T09:52:46;22.40;1.00
20650;DHT22;10484;48.736;9.332;2022-07-09T09:55:13;22.60;1.00
20650;DHT22;10484;48.736;9.332;2022-07-09T09:57:40;22.70;1.00
20650;DHT22;10484;48.736;9.332;2022-07-09T10:00:06;22.80;1.00
20650;DHT22;10484;48.736;9.332;2022-07-09T10:02:32;23.00;1.00
20650;DHT22;10484;48.736;9.332;2022-07-09T10:05:01;23.10;1.00
20650;DHT22;10484;48.736;9.332;2022-07-09T10:07:27;23.20;1.00
20650;DHT22;10484;48.736;9.332;2022-07-09T10:09:57;23.30;1.00
20650;DHT22;10484;48.736;9.332;2022-07-09T10:12:32;23.50;1.00
20650;DHT22;10484;48.736;9.332;2022-07-09T10:14:59;23.70;1.00
20650;DHT22;10484;48.736;9.332;2022-07-09T10:17:26;23.80;1.00
20650;DHT22;10484;48.736;9.332;2022-07-09T10:19:57;23.90;1.00
20650;DHT22;10484;48.736;9.332;2022-07-09T10:22:35;24.10;1.00
20650;DHT22;10484;48.736;9.332;2022-07-09T10:25:01;24.20;1.00
20650;DHT22;10484;48.736;9.332;2022-07-09T10:27:27;24.30;1.00
20650;DHT22;10484;48.736;9.332;2022-07-09T10:29:57;24.40;1.00
20650;DHT22;10484;48.736;9.332;2022-07-09T10:32:30;24.50;1.00
20650;DHT22;10484;48.736;9.332;2022-07-09T10:35:01;24.60;1.00
20650;DHT22;10484;48.736;9.332;2022-07-09T10:40:03;24.80;1.00
20650;DHT22;10484;48.736;9.332;2022-07-09T10:42:29;24.90;1.00
20650;DHT22;10484;48.736;9.332;2022-07-09T10:44:55;25.10;1.00
20650;DHT22;10484;48.736;9.332;2022-07-09T10:47:20;25.20;1.00
20650;DHT22;10484;48.736;9.332;2022-07-09T10:49:46;25.30;1.00
20650;DHT22;10484;48.736;9.332;2022-07-09T10:52:12;25.50;1.00
20650;DHT22;10484;48.736;9.332;2022-07-09T10:54:48;25.60;1.00
20650;DHT22;10484;48.736;9.332;2022-07-09T10:57:14;25.70;1.00
20650;DHT22;10484;48.736;9.332;2022-07-09T10:59:45;25.90;1.00
20650;DHT22;10484;48.736;9.332;2022-07-09T11:02:21;26.00;1.00
20650;DHT22;10484;48.736;9.332;2022-07-09T11:04:52;26.20;1.00
20650;DHT22;10484;48.736;9.332;2022-07-09T11:07:25;26.30;1.00
20650;DHT22;10484;48.736;9.332;2022-07-09T11:09:52;26.40;1.00
20650;DHT22;10484;48.736;9.332;2022-07-09T11:12:19;26.60;1.00
20650;DHT22;10484;48.736;9.332;2022-07-09T11:14:46;26.70;1.00
20650;DHT22;10484;48.736;9.332;2022-07-09T11:17:19;26.70;1.00
20650;DHT22;10484;48.736;9.332;2022-07-09T11:19:47;26.70;1.00
20650;DHT22;10484;48.736;9.332;2022-07-09T11:22:14;26.70;1.00
20650;DHT22;10484;48.736;9.332;2022-07-09T11:24:40;26.70;1.00
20650;DHT22;10484;48.736;9.332;2022-07-09T11:27:08;26.80;1.00
20650;DHT22;10484;48.736;9.332;2022-07-09T11:29:35;26.80;1.00
20650;DHT22;10484;48.736;9.332;2022-07-09T11:32:01;26.80;1.00
20650;DHT22;10484;48.736;9.332;2022-07-09T11:34:27;26.80;1.00
20650;DHT22;10484;48.736;9.332;2022-07-09T11:36:56;26.90;1.00
20650;DHT22;10484;48.736;9.332;2022-07-09T11:39:27;27.00;1.00
20650;DHT22;10484;48.736;9.332;2022-07-09T11:41:54;27.10;1.00
20650;DHT22;10484;48.736;9.332;2022-07-09T11:44:25;27.10;1.00
20650;DHT22;10484;48.736;9.332;2022-07-09T11:47:10;27.10;1.00
20650;DHT22;10484;48.736;9.332;2022-07-09T11:49:41;27.10;1.00
20650;DHT22;10484;48.736;9.332;2022-07-09T11:52:23;27.20;1.00
20650;DHT22;10484;48.736;9.332;2022-07-09T11:55:06;27.10;1.00
20650;DHT22;10484;48.736;9.332;2022-07-09T11:57:36;27.20;1.00
20650;DHT22;10484;48.736;9.332;2022-07-09T12:00:04;27.10;1.00
20650;DHT22;10484;48.736;9.332;2022-07-09T12:02:35;27.10;1.00
20650;DHT22;10484;48.736;9.332;2022-07-09T12:05:03;27.20;1.00
20650;DHT22;10484;48.736;9.332;2022-07-09T12:07:29;27.30;1.00
20650;DHT22;10484;48.736;9.332;2022-07-09T12:10:09;27.30;1.00
20650;DHT22;10484;48.736;9.332;2022-07-09T12:12:36;27.30;1.00
20650;DHT22;10484;48.736;9.332;2022-07-09T12:15:04;27.40;1.00
20650;DHT22;10484;48.736;9.332;2022-07-09T12:17:31;27.30;1.00
20650;DHT22;10484;48.736;9.332;2022-07-09T12:19:58;27.30;1.00
20650;DHT22;10484;48.736;9.332;2022-07-09T12:22:25;27.40;1.00
20650;DHT22;10484;48.736;9.332;2022-07-09T12:24:53;27.40;1.00
20650;DHT22;10484;48.736;9.332;2022-07-09T12:27:20;27.40;1.00
20650;DHT22;10484;48.736;9.332;2022-07-09T12:29:46;27.40;1.00
20650;DHT22;10484;48.736;9.332;2022-07-09T12:32:12;27.50;1.00
20650;DHT22;10484;48.736;9.332;2022-07-09T12:34:38;27.50;1.00
20650;DHT22;10484;48.736;9.332;2022-07-09T12:37:04;27.60;1.00
20650;DHT22;10484;48.736;9.332;2022-07-09T12:39:30;27.60;1.00
20650;DHT22;10484;48.736;9.332;2022-07-09T12:41:56;27.60;1.00
20650;DHT22;10484;48.736;9.332;2022-07-09T12:44:23;27.60;1.00
20650;DHT22;10484;48.736;9.332;2022-07-09T12:46:50;27.70;1.00
20650;DHT22;10484;48.736;9.332;2022-07-09T12:49:16;27.60;1.00
20650;DHT22;10484;48.736;9.332;2022-07-09T12:51:42;27.60;1.00
20650;DHT22;10484;48.736;9.332;2022-07-09T12:54:08;27.50;1.00
20650;DHT22;10484;48.736;9.332;2022-07-09T12:56:34;27.50;1.00
20650;DHT22;10484;48.736;9.332;2022-07-09T12:59:00;27.50;1.00
20650;DHT22;10484;48.736;9.332;2022-07-09T13:01:26;27.60;1.00
20650;DHT22;10484;48.736;9.332;2022-07-09T13:03:51;27.60;1.00
20650;DHT22;10484;48.736;9.332;2022-07-09T13:06:19;27.70;1.00
20650;DHT22;10484;48.736;9.332;2022-07-09T13:08:57;27.80;1.00
20650;DHT22;10484;48.736;9.332;2022-07-09T13:11:23;27.90;1.00
20650;DHT22;10484;48.736;9.332;2022-07-09T13:13:49;27.90;1.00
20650;DHT22;10484;48.736;9.332;2022-07-09T13:16:14;28.00;1.00
20650;DHT22;10484;48.736;9.332;2022-07-09T13:18:40;28.10;1.00
20650;DHT22;10484;48.736;9.332;2022-07-09T13:21:06;28.10;1.00
20650;DHT22;10484;48.736;9.332;2022-07-09T13:23:31;28.20;1.00
20650;DHT22;10484;48.736;9.332;2022-07-09T13:25:58;28.30;1.00
20650;DHT22;10484;48.736;9.332;2022-07-09T13:28:24;28.30;1.00
20650;DHT22;10484;48.736;9.332;2022-07-09T13:30:50;28.30;1.00
20650;DHT22;10484;48.736;9.332;2022-07-09T13:33:15;28.30;1.00
20650;DHT22;10484;48.736;9.332;2022-07-09T13:35:41;28.30;1.00
20650;DHT22;10484;48.736;9.332;2022-07-09T13:38:07;28.30;1.00
20650;DHT22;10484;48.736;9.332;2022-07-09T13:40:33;28.30;1.00
20650;DHT22;10484;48.736;9.332;2022-07-09T13:42:59;28.30;1.00
20650;DHT22;10484;48.736;9.332;2022-07-09T13:45:24;28.30;1.00
20650;DHT22;10484;48.736;9.332;2022-07-09T13:47:52;28.30;1.00
20650;DHT22;10484;48.736;9.332;2022-07-09T13:50:18;28.30;1.00
20650;DHT22;10484;48.736;9.332;2022-07-09T13:52:44;28.30;1.00
20650;DHT22;10484;48.736;9.332;2022-07-09T13:55:10;28.20;1.00
20650;DHT22;10484;48.736;9.332;2022-07-09T13:57:36;28.30;1.00
20650;DHT22;10484;48.736;9.332;2022-07-09T14:00:03;28.40;1.00
20650;DHT22;10484;48.736;9.332;2022-07-09T14:02:29;28.50;1.00
20650;DHT22;10484;48.736;9.332;2022-07-09T14:04:57;28.60;1.00
20650;DHT22;10484;48.736;9.332;2022-07-09T14:07:23;28.60;1.00
20650;DHT22;10484;48.736;9.332;2022-07-09T14:09:49;28.70;1.00
20650;DHT22;10484;48.736;9.332;2022-07-09T14:12:16;28.70;1.00
20650;DHT22;10484;48.736;9.332;2022-07-09T14:14:42;28.70;1.00
20650;DHT22;10484;48.736;9.332;2022-07-09T14:17:08;28.70;1.00
20650;DHT22;10484;48.736;9.332;2022-07-09T14:19:33;28.70;1.00
20650;DHT22;10484;48.736;9.332;2022-07-09T14:21:59;28.80;1.00
20650;DHT22;10484;48.736;9.332;2022-07-09T14:24:25;28.80;1.00
20650;DHT22;10484;48.736;9.332;2022-07-09T14:26:51;28.80;1.00
20650;DHT22;10484;48.736;9.332;2022-07-09T14:29:16;28.70;1.00
20650;DHT22;10484;48.736;9.332;2022-07-09T14:31:42;28.70;1.00
20650;DHT22;10484;48.736;9.332;2022-07-09T14:34:08;28.80;1.00
20650;DHT22;10484;48.736;9.332;2022-07-09T14:36:34;28.70;1.00
20650;DHT22;10484;48.736;9.332;2022-07-09T14:39:00;28.80;1.00
20650;DHT22;10484;48.736;9.332;2022-07-09T14:41:28;28.80;1.00
20650;DHT22;10484;48.736;9.332;2022-07-09T14:43:54;28.70;1.00
20650;DHT22;10484;48.736;9.332;2022-07-09T14:46:19;28.60;1.00
20650;DHT22;10484;48.736;9.332;2022-07-09T14:48:45;28.70;1.00
20650;DHT22;10484;48.736;9.332;2022-07-09T14:51:11;28.80;1.00
20650;DHT22;10484;48.736;9.332;2022-07-09T14:53:37;28.70;1.00
20650;DHT22;10484;48.736;9.332;2022-07-09T14:56:03;28.70;1.00
20650;DHT22;10484;48.736;9.332;2022-07-09T14:58:28;28.80;1.00
20650;DHT22;10484;48.736;9.332;2022-07-09T15:00:54;28.70;1.00
20650;DHT22;10484;48.736;9.332;2022-07-09T15:03:20;28.80;1.00
20650;DHT22;10484;48.736;9.332;2022-07-09T15:05:46;28.70;1.00
20650;DHT22;10484;48.736;9.332;2022-07-09T15:08:11;28.70;1.00
20650;DHT22;10484;48.736;9.332;2022-07-09T15:10:37;28.70;1.00
20650;DHT22;10484;48.736;9.332;2022-07-09T15:13:04;28.60;1.00
20650;DHT22;10484;48.736;9.332;2022-07-09T15:15:32;28.70;1.00
20650;DHT22;10484;48.736;9.332;2022-07-09T15:17:59;28.60;1.00
20650;DHT22;10484;48.736;9.332;2022-07-09T15:20:24;28.70;1.00
20650;DHT22;10484;48.736;9.332;2022-07-09T15:22:50;28.70;1.00
20650;DHT22;10484;48.736;9.332;2022-07-09T15:25:16;28.70;1.00
20650;DHT22;10484;48.736;9.332;2022-07-09T15:27:41;28.80;1.00
20650;DHT22;10484;48.736;9.332;2022-07-09T15:30:08;28.80;1.00
20650;DHT22;10484;48.736;9.332;2022-07-09T15:32:33;28.80;1.00
20650;DHT22;10484;48.736;9.332;2022-07-09T15:34:59;28.80;1.00
20650;DHT22;10484;48.736;9.332;2022-07-09T15:37:25;28.70;1.00
20650;DHT22;10484;48.736;9.332;2022-07-09T15:39:51;28.80;1.00
20650;DHT22;10484;48.736;9.332;2022-07-09T15:42:17;28.80;1.00